createdAt,value
2023-03-07T00:01:26.638Z,5.60
2023-03-07T00:03:55.358Z,4.93
2023-03-07T00:06:23.004Z,5.73
2023-03-07T00:08:57.217Z,5.07
2023-03-07T00:11:24.778Z,3.90
2023-03-07T00:13:52.952Z,3.30
2023-03-07T00:16:23.117Z,3.03
2023-03-07T00:18:50.387Z,3.83
2023-03-07T00:21:21.105Z,3.37
2023-03-07T00:23:49.160Z,2.27
2023-03-07T00:26:20.975Z,2.20
2023-03-07T00:28:51.327Z,2.73
2023-03-07T00:31:19.797Z,2.23
2023-03-07T00:33:47.244Z,2.30
2023-03-07T00:36:18.355Z,1.30
2023-03-07T00:38:46.313Z,1.60
2023-03-07T00:41:17.817Z,1.67
2023-03-07T00:43:47.134Z,1.43
2023-03-07T00:46:16.710Z,1.70
2023-03-07T00:48:44.727Z,1.23
2023-03-07T00:51:16.030Z,1.20
2023-03-07T00:53:43.783Z,1.10
2023-03-07T00:56:25.203Z,1.70
2023-03-07T00:58:52.994Z,1.37
2023-03-07T01:01:24.564Z,2.30
2023-03-07T01:03:56.215Z,2.40
2023-03-07T01:06:27.322Z,1.57
2023-03-07T01:08:58.391Z,2.70
2023-03-07T01:11:27.810Z,1.93
2023-03-07T01:14:00.863Z,3.03
2023-03-07T01:16:37.762Z,1.40
2023-03-07T01:19:08.215Z,1.90
2023-03-07T01:21:39.098Z,2.07
2023-03-07T01:24:10.204Z,1.83
2023-03-07T01:26:37.490Z,2.53
2023-03-07T01:29:06.782Z,1.77
2023-03-07T01:31:34.449Z,1.87
2023-03-07T01:34:03.189Z,1.90
2023-03-07T01:36:34.240Z,1.90
2023-03-07T01:39:07.539Z,2.70
2023-03-07T01:41:36.809Z,2.30
2023-03-07T01:44:15.310Z,2.43
2023-03-07T01:46:56.230Z,2.10
2023-03-07T01:49:41.026Z,2.83
2023-03-07T01:52:18.427Z,2.03
2023-03-07T01:54:51.468Z,3.50
2023-03-07T01:57:21.910Z,3.47
2023-03-07T01:59:54.956Z,2.90
2023-03-07T02:02:23.042Z,2.80
2023-03-07T02:05:01.650Z,2.37
2023-03-07T02:07:37.387Z,2.43
2023-03-07T02:10:07.116Z,3.60
2023-03-07T02:12:34.925Z,2.93
2023-03-07T02:15:04.354Z,3.47
2023-03-07T02:17:32.217Z,3.13
2023-03-07T02:20:32.490Z,2.97
2023-03-07T02:22:59.785Z,2.53
2023-03-07T02:25:49.968Z,2.37
2023-03-07T02:28:19.126Z,3.60
2023-03-07T02:31:07.101Z,3.90
2023-03-07T02:33:34.444Z,2.50
2023-03-07T02:36:17.660Z,3.23
2023-03-07T02:38:46.999Z,2.67
2023-03-07T02:41:17.881Z,3.00
2023-03-07T02:43:45.072Z,3.27
2023-03-07T02:46:12.459Z,3.10
2023-03-07T02:48:39.980Z,3.27
2023-03-07T02:51:07.291Z,3.90
2023-03-07T02:53:34.638Z,3.90
2023-03-07T02:56:01.847Z,3.83
2023-03-07T02:58:29.439Z,3.50
2023-03-07T03:00:56.618Z,3.70
2023-03-07T03:03:23.614Z,4.93
2023-03-07T03:05:50.794Z,3.17
2023-03-07T03:08:18.290Z,3.73
2023-03-07T03:10:45.769Z,3.40
2023-03-07T03:13:13.067Z,3.93
2023-03-07T03:15:40.354Z,4.13
2023-03-07T03:18:07.629Z,3.27
2023-03-07T03:20:35.005Z,4.10
2023-03-07T03:23:02.250Z,4.60
2023-03-07T03:25:29.577Z,5.50
2023-03-07T03:27:57.424Z,4.33
2023-03-07T03:30:24.994Z,4.87
2023-03-07T03:32:52.241Z,5.30
2023-03-07T03:35:19.894Z,5.97
2023-03-07T03:37:47.116Z,5.37
2023-03-07T03:40:17.529Z,4.73
2023-03-07T03:42:45.347Z,5.77
2023-03-07T03:45:16.999Z,5.73
2023-03-07T03:47:44.215Z,5.20
2023-03-07T03:50:11.934Z,5.83
2023-03-07T03:52:39.227Z,5.43
2023-03-07T03:55:06.857Z,5.77
2023-03-07T03:57:33.925Z,5.73
2023-03-07T04:00:01.355Z,6.10
2023-03-07T04:02:30.754Z,6.07
2023-03-07T04:04:58.150Z,7.90
2023-03-07T04:07:29.192Z,7.57
2023-03-07T04:09:56.640Z,6.87
2023-03-07T04:12:23.922Z,7.37
2023-03-07T04:14:51.199Z,6.83
2023-03-07T04:17:18.482Z,7.53
2023-03-07T04:19:45.576Z,7.90
2023-03-07T04:22:12.690Z,7.37
2023-03-07T04:24:40.026Z,7.13
2023-03-07T04:27:07.951Z,7.07
2023-03-07T04:29:35.090Z,8.50
2023-03-07T04:32:02.444Z,8.37
2023-03-07T04:34:29.691Z,8.87
2023-03-07T04:36:56.907Z,9.43
2023-03-07T04:39:23.917Z,8.83
2023-03-07T04:41:50.929Z,7.97
2023-03-07T04:44:18.136Z,9.90
2023-03-07T04:46:45.524Z,8.10
2023-03-07T04:49:12.554Z,7.50
2023-03-07T04:51:39.979Z,9.43
2023-03-07T04:54:07.269Z,7.47
2023-03-07T04:56:34.544Z,8.87
2023-03-07T04:59:01.654Z,9.37
2023-03-07T05:01:28.878Z,9.50
2023-03-07T05:03:56.573Z,9.60
2023-03-07T05:06:24.892Z,8.93
2023-03-07T05:08:51.972Z,8.77
2023-03-07T05:11:19.400Z,7.73
2023-03-07T05:13:46.871Z,8.23
2023-03-07T05:16:14.229Z,10.43
2023-03-07T05:18:41.550Z,7.97
2023-03-07T05:21:08.810Z,8.27
2023-03-07T05:23:35.801Z,9.53
2023-03-07T05:26:02.846Z,7.03
2023-03-07T05:28:30.221Z,8.93
2023-03-07T05:30:58.617Z,8.80
2023-03-07T05:33:26.024Z,10.00
2023-03-07T05:35:55.602Z,7.40
2023-03-07T05:38:29.511Z,7.80
2023-03-07T05:40:56.546Z,9.10
2023-03-07T05:43:23.836Z,9.97
2023-03-07T05:45:51.002Z,10.33
2023-03-07T05:48:18.165Z,12.53
2023-03-07T05:50:45.354Z,12.13
2023-03-07T05:53:15.392Z,12.90
2023-03-07T05:55:42.639Z,12.17
2023-03-07T05:58:09.998Z,14.57
2023-03-07T06:00:38.191Z,12.43
2023-03-07T06:03:05.696Z,15.03
2023-03-07T06:05:32.875Z,15.20
2023-03-07T06:08:00.113Z,19.60
2023-03-07T06:10:27.625Z,16.67
2023-03-07T06:12:56.127Z,15.20
2023-03-07T06:15:24.844Z,14.43
2023-03-07T06:17:53.778Z,15.33
2023-03-07T06:20:21.182Z,15.93
2023-03-07T06:22:48.923Z,17.63
2023-03-07T06:25:16.992Z,14.23
2023-03-07T06:27:44.438Z,16.20
2023-03-07T06:30:13.284Z,14.47
2023-03-07T06:32:40.652Z,11.23
2023-03-07T06:35:08.409Z,8.53
2023-03-07T06:37:35.758Z,8.73
2023-03-07T06:40:06.476Z,10.07
2023-03-07T06:42:33.698Z,6.93
2023-03-07T06:45:01.194Z,8.33
2023-03-07T06:47:28.619Z,6.60
2023-03-07T06:49:55.895Z,6.27
2023-03-07T06:52:23.490Z,7.07
2023-03-07T06:54:50.511Z,6.97
2023-03-07T06:57:17.791Z,6.93
2023-03-07T06:59:44.909Z,6.47
2023-03-07T07:02:14.967Z,5.73
2023-03-07T07:04:42.396Z,5.67
2023-03-07T07:07:09.690Z,6.67
2023-03-07T07:09:37.185Z,5.40
2023-03-07T07:12:06.008Z,5.70
2023-03-07T07:14:34.465Z,4.73
2023-03-07T07:17:01.948Z,4.40
2023-03-07T07:19:29.322Z,3.57
2023-03-07T07:21:57.209Z,4.20
2023-03-07T07:24:24.453Z,5.30
2023-03-07T07:26:52.001Z,2.93
2023-03-07T07:29:19.223Z,3.60
2023-03-07T07:31:46.547Z,3.43
2023-03-07T07:34:13.866Z,3.00
2023-03-07T07:36:41.492Z,3.40
2023-03-07T07:39:10.631Z,3.57
2023-03-07T07:41:38.387Z,3.77
2023-03-07T07:44:05.430Z,3.93
2023-03-07T07:46:32.625Z,3.37
2023-03-07T07:48:59.846Z,3.53
2023-03-07T07:51:27.339Z,4.00
2023-03-07T07:53:54.792Z,2.00
2023-03-07T07:56:22.236Z,2.63
2023-03-07T07:58:49.616Z,2.87
2023-03-07T08:01:23.094Z,2.17
2023-03-07T08:03:50.349Z,3.07
2023-03-07T08:06:23.900Z,2.57
2023-03-07T08:08:51.835Z,2.10
2023-03-07T08:11:20.646Z,2.30
2023-03-07T08:13:48.148Z,2.27
2023-03-07T08:16:19.411Z,3.87
2023-03-07T08:18:55.985Z,3.57
2023-03-07T08:21:24.886Z,1.70
2023-03-07T08:23:56.742Z,1.80
2023-03-07T08:26:24.387Z,2.10
2023-03-07T08:28:51.903Z,3.37
2023-03-07T08:31:26.137Z,2.47
2023-03-07T08:33:53.750Z,2.90
2023-03-07T08:36:21.272Z,2.97
2023-03-07T08:38:53.037Z,2.63
2023-03-07T08:41:22.451Z,2.87
2023-03-07T08:43:49.602Z,2.10
2023-03-07T08:46:17.169Z,3.00
2023-03-07T08:48:44.335Z,3.40
2023-03-07T08:51:15.924Z,2.60
2023-03-07T08:53:44.401Z,3.23
2023-03-07T08:56:15.079Z,2.60
2023-03-07T08:58:43.585Z,2.70
2023-03-07T09:01:13.170Z,2.77
2023-03-07T09:03:40.623Z,3.10
2023-03-07T09:06:08.341Z,4.60
2023-03-07T09:08:35.381Z,2.57
2023-03-07T09:11:05.393Z,3.37
2023-03-07T09:13:36.082Z,2.43
2023-03-07T09:16:08.381Z,3.10
2023-03-07T09:18:36.765Z,2.97
2023-03-07T09:21:05.829Z,2.30
2023-03-07T09:23:33.331Z,3.07
2023-03-07T09:26:02.560Z,2.80
2023-03-07T09:28:29.756Z,2.13
2023-03-07T09:30:56.946Z,2.23
2023-03-07T09:33:24.135Z,2.43
2023-03-07T09:35:51.542Z,2.83
2023-03-07T09:38:18.781Z,2.70
2023-03-07T09:40:48.334Z,2.97
2023-03-07T09:43:34.581Z,3.27
2023-03-07T09:46:31.192Z,2.87
2023-03-07T09:49:05.967Z,3.10
2023-03-07T09:51:41.616Z,3.43
2023-03-07T09:54:44.792Z,2.50
2023-03-07T09:57:29.850Z,3.07
2023-03-07T10:00:02.638Z,2.87
2023-03-07T10:02:37.505Z,3.13
2023-03-07T10:05:30.029Z,3.00
2023-03-07T10:07:57.474Z,5.83
2023-03-07T10:10:56.616Z,4.63
2023-03-07T10:14:33.802Z,5.00
2023-03-07T10:17:20.427Z,2.90
2023-03-07T10:19:56.976Z,3.30
2023-03-07T10:22:39.187Z,3.20
2023-03-07T10:25:29.530Z,3.40
2023-03-07T10:28:22.905Z,2.97
2023-03-07T10:30:54.516Z,2.70
2023-03-07T10:33:21.762Z,3.00
2023-03-07T10:36:09.171Z,4.80
2023-03-07T10:38:51.144Z,3.47
2023-03-07T10:41:21.875Z,2.80
2023-03-07T10:43:52.612Z,2.47
2023-03-07T10:46:28.752Z,3.17
2023-03-07T10:49:20.594Z,3.50
2023-03-07T10:52:06.875Z,5.33
2023-03-07T10:54:37.958Z,3.83
2023-03-07T10:57:10.724Z,3.93
2023-03-07T10:59:41.441Z,2.77
2023-03-07T11:02:44.774Z,2.87
2023-03-07T11:05:36.101Z,3.23
2023-03-07T11:08:34.160Z,3.67
2023-03-07T11:11:04.793Z,3.80
2023-03-07T11:13:32.145Z,3.20
2023-03-07T11:16:15.503Z,2.80
2023-03-07T11:18:44.430Z,3.17
2023-03-07T11:21:33.517Z,2.93
2023-03-07T11:24:28.978Z,2.80
2023-03-07T11:26:58.903Z,2.40
2023-03-07T11:29:28.556Z,2.97
2023-03-07T11:32:18.702Z,2.87
2023-03-07T11:35:15.300Z,3.27
2023-03-07T11:38:13.968Z,2.63
2023-03-07T11:41:05.984Z,2.70
2023-03-07T11:43:57.122Z,2.33
2023-03-07T11:47:11.268Z,3.20
2023-03-07T11:50:17.222Z,2.43
2023-03-07T11:53:14.786Z,2.23
2023-03-07T11:56:11.247Z,3.23
2023-03-07T11:58:47.085Z,2.50
2023-03-07T12:02:02.517Z,2.57
2023-03-07T12:04:53.659Z,2.13
2023-03-07T12:08:10.412Z,2.97
2023-03-07T12:11:33.660Z,2.70
2023-03-07T12:14:27.236Z,2.67
2023-03-07T12:17:41.117Z,3.13
2023-03-07T12:20:26.790Z,2.50
2023-03-07T12:23:04.749Z,2.43
2023-03-07T12:25:43.529Z,2.23
2023-03-07T12:28:54.023Z,3.07
2023-03-07T12:31:34.950Z,2.47
2023-03-07T12:34:11.220Z,2.03
2023-03-07T12:36:58.420Z,2.20
2023-03-07T12:39:51.871Z,2.23
2023-03-07T12:42:50.013Z,2.17
2023-03-07T12:45:21.625Z,3.30
2023-03-07T12:47:57.771Z,3.70
2023-03-07T12:50:52.464Z,3.33
2023-03-07T12:53:33.644Z,4.13
2023-03-07T12:56:25.618Z,4.13
2023-03-07T12:59:16.870Z,4.37
2023-03-07T13:02:11.598Z,5.70
2023-03-07T13:04:43.328Z,5.17
2023-03-07T13:07:16.515Z,5.47
2023-03-07T13:09:47.388Z,7.07
2023-03-07T13:12:16.981Z,6.73
2023-03-07T13:15:02.121Z,7.73
2023-03-07T13:17:34.597Z,8.47
2023-03-07T13:20:19.631Z,8.73
2023-03-07T13:22:46.651Z,8.60
2023-03-07T13:25:27.430Z,8.90
2023-03-07T13:28:00.251Z,8.10
2023-03-07T13:30:34.710Z,10.27
2023-03-07T13:33:28.692Z,8.60
2023-03-07T13:35:59.485Z,8.37
2023-03-07T13:38:41.100Z,7.60
2023-03-07T13:41:12.556Z,8.17
2023-03-07T13:43:45.671Z,6.93
2023-03-07T13:46:24.705Z,7.07
2023-03-07T13:48:54.757Z,6.83
2023-03-07T13:51:22.458Z,6.33
2023-03-07T13:54:00.693Z,6.33
2023-03-07T13:56:36.240Z,5.50
2023-03-07T13:59:24.609Z,6.73
2023-03-07T14:02:01.465Z,6.00
2023-03-07T14:04:41.712Z,6.23
2023-03-07T14:07:28.815Z,6.07
2023-03-07T14:10:29.871Z,4.40
2023-03-07T14:13:27.443Z,4.90
2023-03-07T14:16:31.677Z,5.20
2023-03-07T14:19:34.110Z,3.93
2023-03-07T14:22:13.861Z,3.87
2023-03-07T14:25:09.893Z,3.00
2023-03-07T14:28:19.323Z,2.97
2023-03-07T14:31:23.350Z,2.53
2023-03-07T14:33:50.399Z,2.47
2023-03-07T14:36:29.160Z,1.83
2023-03-07T14:39:02.251Z,2.03
2023-03-07T14:42:06.075Z,1.90
2023-03-07T14:45:05.254Z,2.10
2023-03-07T14:47:59.986Z,1.50
2023-03-07T14:50:30.071Z,1.97
2023-03-07T14:53:22.891Z,1.73
2023-03-07T14:55:54.057Z,1.80
2023-03-07T14:58:32.490Z,1.83
2023-03-07T15:01:19.974Z,1.40
2023-03-07T15:03:54.253Z,1.43
2023-03-07T15:06:25.629Z,1.47
2023-03-07T15:08:56.053Z,1.33
2023-03-07T15:11:44.729Z,1.57
2023-03-07T15:14:48.763Z,1.70
2023-03-07T15:17:38.158Z,3.10
2023-03-07T15:20:21.266Z,1.40
2023-03-07T15:22:48.770Z,2.43
2023-03-07T15:25:25.882Z,1.33
2023-03-07T15:28:02.777Z,2.60
2023-03-07T15:30:37.668Z,2.97
2023-03-07T15:33:21.389Z,1.37
2023-03-07T15:36:11.718Z,2.80
2023-03-07T15:38:48.526Z,2.27
2023-03-07T15:41:37.290Z,1.70
2023-03-07T15:44:26.057Z,2.33
2023-03-07T15:46:57.944Z,2.00
2023-03-07T15:49:50.563Z,1.97
2023-03-07T15:52:39.650Z,1.77
2023-03-07T15:55:20.158Z,1.90
2023-03-07T15:58:11.379Z,1.70
2023-03-07T16:00:41.485Z,2.33
2023-03-07T16:03:25.225Z,3.10
2023-03-07T16:05:53.195Z,2.53
2023-03-07T16:08:21.162Z,2.30
2023-03-07T16:11:05.519Z,1.87
2023-03-07T16:13:40.739Z,2.87
2023-03-07T16:16:14.103Z,2.13
2023-03-07T16:18:42.677Z,3.27
2023-03-07T16:21:16.599Z,2.27
2023-03-07T16:23:44.758Z,2.57
2023-03-07T16:26:20.875Z,2.20
2023-03-07T16:28:53.371Z,2.37
2023-03-07T16:31:21.664Z,2.87
2023-03-07T16:33:48.797Z,3.57
2023-03-07T16:36:16.221Z,3.70
2023-03-07T16:38:43.657Z,3.07
2023-03-07T16:41:19.868Z,3.23
2023-03-07T16:43:56.221Z,3.10
2023-03-07T16:46:24.459Z,4.30
2023-03-07T16:48:51.712Z,3.83
2023-03-07T16:51:23.012Z,4.17
2023-03-07T16:53:50.649Z,4.67
2023-03-07T16:56:38.739Z,3.10
2023-03-07T16:59:08.483Z,3.70
2023-03-07T17:01:35.694Z,3.67
2023-03-07T17:04:41.911Z,3.73
2023-03-07T17:08:19.662Z,5.60
2023-03-07T17:11:51.405Z,4.30
2023-03-07T17:14:52.456Z,5.17
2023-03-07T17:17:36.648Z,7.33
2023-03-07T17:23:16.333Z,5.37
2023-03-07T17:25:59.694Z,6.83
2023-03-07T17:28:36.908Z,5.23
2023-03-07T17:31:33.018Z,4.80
2023-03-07T17:34:54.617Z,4.17
2023-03-07T17:40:39.571Z,3.73
2023-03-07T17:43:16.649Z,4.50
2023-03-07T17:46:17.730Z,6.53
2023-03-07T17:49:01.870Z,4.60
2023-03-07T17:51:51.900Z,4.90
2023-03-07T17:54:34.560Z,4.47
2023-03-07T17:57:11.533Z,4.83
2023-03-07T18:00:10.713Z,6.03
2023-03-07T18:02:51.340Z,8.90
2023-03-07T18:08:22.101Z,9.77
2023-03-07T18:10:51.954Z,8.27
2023-03-07T18:13:20.684Z,9.10
2023-03-07T18:15:48.738Z,7.73
2023-03-07T18:18:16.319Z,6.37
2023-03-07T18:20:43.711Z,7.53
2023-03-07T18:23:10.792Z,9.80
2023-03-07T18:25:37.818Z,9.47
2023-03-07T18:28:05.096Z,9.40
2023-03-07T18:30:32.751Z,9.93
2023-03-07T18:33:00.156Z,9.63
2023-03-07T18:35:27.504Z,9.17
2023-03-07T18:37:55.052Z,10.77
2023-03-07T18:40:25.121Z,9.17
2023-03-07T18:46:36.108Z,11.27
2023-03-07T18:49:18.243Z,10.40
2023-03-07T18:51:51.898Z,10.30
2023-03-07T18:54:32.157Z,9.87
2023-03-07T18:57:28.232Z,10.70
2023-03-07T19:00:10.351Z,10.67
2023-03-07T19:03:05.393Z,10.83
2023-03-07T19:05:33.465Z,11.10
2023-03-07T19:08:12.497Z,11.43
2023-03-07T19:10:45.532Z,9.63
2023-03-07T19:13:13.449Z,11.17
2023-03-07T19:15:41.046Z,11.27
2023-03-07T19:18:20.876Z,10.70
2023-03-07T19:21:45.655Z,11.43
2023-03-07T19:24:46.496Z,10.37
2023-03-07T19:27:31.018Z,11.50
2023-03-07T19:30:40.462Z,12.20
2023-03-07T19:33:19.268Z,10.17
2023-03-07T19:35:48.011Z,9.50
2023-03-07T19:38:18.650Z,13.57
2023-03-07T19:40:52.656Z,12.77
2023-03-07T19:43:23.357Z,11.27
2023-03-07T19:45:58.494Z,10.60
2023-03-07T19:48:45.675Z,10.67
2023-03-07T19:51:17.307Z,11.13
2023-03-07T19:53:57.833Z,10.90
2023-03-07T19:56:37.400Z,13.60
2023-03-07T19:59:09.734Z,10.40
2023-03-07T20:01:40.567Z,11.43
2023-03-07T20:04:12.646Z,11.90
2023-03-07T20:06:45.124Z,12.10
2023-03-07T20:09:14.279Z,11.73
2023-03-07T20:11:49.959Z,12.13
2023-03-07T20:15:05.212Z,12.90
2023-03-07T20:17:56.520Z,11.23
2023-03-07T20:21:00.132Z,11.17
2023-03-07T20:23:43.156Z,11.20
2023-03-07T20:26:24.806Z,12.00
2023-03-07T20:29:08.875Z,11.43
2023-03-07T20:31:55.012Z,10.77
2023-03-07T20:35:02.833Z,11.17
2023-03-07T20:37:45.462Z,11.67
2023-03-07T20:40:32.973Z,13.53
2023-03-07T20:43:26.532Z,12.57
2023-03-07T20:45:57.235Z,11.90
2023-03-07T20:48:27.746Z,13.93
2023-03-07T20:51:06.730Z,12.17
2023-03-07T20:53:40.339Z,13.30
2023-03-07T20:56:10.327Z,13.57
2023-03-07T21:24:56.647Z,12.70
2023-03-07T21:28:17.555Z,9.87
2023-03-07T21:35:08.173Z,9.67
2023-03-07T21:45:51.304Z,11.87
2023-03-07T21:49:44.405Z,10.67
2023-03-07T22:05:39.805Z,10.50
2023-03-07T22:07:56.913Z,8.90
2023-03-07T22:26:20.990Z,10.67
2023-03-07T22:29:20.979Z,10.80
2023-03-07T22:39:49.396Z,10.80
2023-03-07T22:45:28.922Z,11.30
2023-03-07T22:49:16.272Z,11.83
2023-03-07T23:18:15.407Z,14.83
2023-03-07T23:24:54.258Z,13.33
2023-03-07T23:50:42.159Z,12.60
